Time;durP1;ratioP1;P1;durP2;ratioP2;P2;SDS_P1;SDS_P2;PMS_P1;PMS_P2;Temp;Humidity;BMP_temperature;BMP_pressure;BME280_temperature;BME280_humidity;BME280_pressure;Samples;Min_cycle;Max_cycle;Signal;HPM_P1;HPM_P2
2021/03/17 00:01:02;;;;;;;1999.90;999.90;;;6.30;99.90;;;;;;4957961;29;20651;-80
2021/03/17 00:03:28;;;;;;;1999.90;999.90;;;6.30;99.90;;;;;;4958305;29;20192;-80
2021/03/17 00:05:54;;;;;;;1999.90;999.90;;;6.30;99.90;;;;;;4959254;29;20214;-80
2021/03/17 00:08:22;;;;;;;1999.90;999.90;;;6.30;99.90;;;;;;4958291;29;20267;-80
2021/03/17 00:10:51;;;;;;;1999.90;999.90;;;6.20;99.90;;;;;;4958925;29;20404;-81
2021/03/17 00:13:27;;;;;;;1999.90;999.90;;;6.20;99.90;;;;;;4957150;29;20331;-81
2021/03/17 00:15:57;;;;;;;1999.90;999.90;;;6.20;99.90;;;;;;4957676;29;20184;-81
2021/03/17 00:18:25;;;;;;;1999.90;999.90;;;6.20;99.90;;;;;;4958380;29;20194;-80
2021/03/17 00:20:50;;;;;;;1999.90;999.90;;;6.10;99.90;;;;;;4957845;29;20259;-80
2021/03/17 00:23:18;;;;;;;1999.90;999.90;;;6.10;99.90;;;;;;4958786;29;20219;-80
2021/03/17 00:25:44;;;;;;;1999.90;999.90;;;6.10;99.90;;;;;;4958229;29;20160;-80
2021/03/17 00:28:10;;;;;;;1999.90;999.90;;;6.10;99.90;;;;;;4958290;29;20258;-80
2021/03/17 00:30:39;;;;;;;1999.90;999.90;;;6.10;99.90;;;;;;4958151;29;20215;-80
2021/03/17 00:33:13;;;;;;;1999.90;999.90;;;6.00;99.90;;;;;;4958635;29;20274;-81
2021/03/17 00:35:39;;;;;;;1999.90;999.90;;;6.00;99.90;;;;;;4958480;29;20188;-81
2021/03/17 00:38:06;;;;;;;1999.90;999.90;;;6.00;99.90;;;;;;4958297;29;20202;-81
2021/03/17 00:40:32;;;;;;;1999.90;999.90;;;6.00;99.90;;;;;;4958084;29;20169;-80
2021/03/17 00:42:58;;;;;;;1999.90;999.90;;;6.00;99.90;;;;;;4958178;29;20171;-80
2021/03/17 00:45:24;;;;;;;1999.90;999.90;;;6.00;99.90;;;;;;4958542;29;20168;-81
2021/03/17 00:47:51;;;;;;;1999.90;999.90;;;6.00;99.90;;;;;;4960167;28;20435;-80
2021/03/17 00:50:17;;;;;;;1999.90;999.90;;;6.00;99.90;;;;;;4962068;29;20174;-80
2021/03/17 00:52:43;;;;;;;1999.90;999.90;;;5.90;99.90;;;;;;4961945;29;20509;-80
2021/03/17 00:55:10;;;;;;;1999.90;999.90;;;6.00;99.90;;;;;;4961918;29;20615;-81
2021/03/17 00:57:36;;;;;;;1999.90;999.90;;;6.00;99.90;;;;;;4961853;29;20160;-81
2021/03/17 01:00:05;;;;;;;1999.90;999.90;;;5.90;99.90;;;;;;4961891;29;20223;-81
2021/03/17 01:02:30;;;;;;;1999.90;999.90;;;6.00;99.90;;;;;;4961724;29;20451;-80
2021/03/17 01:04:56;;;;;;;1999.90;999.90;;;6.00;99.90;;;;;;4961363;29;20199;-80
2021/03/17 01:07:22;;;;;;;1999.90;999.90;;;5.90;99.90;;;;;;4961564;29;20172;-81
2021/03/17 01:09:47;;;;;;;1999.90;999.90;;;5.90;99.90;;;;;;4961667;29;20175;-81
2021/03/17 01:12:13;;;;;;;1999.90;999.90;;;5.90;99.90;;;;;;4961890;29;20168;-80
2021/03/17 01:14:41;;;;;;;1999.90;999.90;;;5.90;99.90;;;;;;4961650;29;20231;-81
2021/03/17 01:17:07;;;;;;;1999.90;999.90;;;5.90;99.90;;;;;;4944414;29;20175;-81
2021/03/17 01:19:34;;;;;;;1999.90;999.90;;;5.90;99.90;;;;;;4962304;29;20160;-80
2021/03/17 01:21:59;;;;;;;1999.90;999.90;;;5.90;99.90;;;;;;4961141;29;20161;-80
2021/03/17 01:24:25;;;;;;;1999.90;999.90;;;5.90;99.90;;;;;;4961584;29;20792;-81
2021/03/17 01:26:51;;;;;;;1999.90;999.90;;;5.90;99.90;;;;;;4960840;29;20183;-80
2021/03/17 01:29:17;;;;;;;1999.90;999.90;;;6.00;99.90;;;;;;4961515;29;20170;-80
2021/03/17 01:31:42;;;;;;;1999.90;999.90;;;6.00;99.90;;;;;;4961504;29;20280;-80
2021/03/17 01:34:08;;;;;;;1999.90;999.90;;;6.00;99.90;;;;;;4961516;29;20198;-80
2021/03/17 01:36:34;;;;;;;1999.90;999.90;;;6.00;99.90;;;;;;4961467;29;20652;-81
2021/03/17 01:39:00;;;;;;;1999.90;999.90;;;6.00;99.90;;;;;;4961161;29;20160;-78
2021/03/17 01:41:25;;;;;;;1999.90;999.90;;;6.00;99.90;;;;;;4944023;29;20242;-80
2021/03/17 01:43:51;;;;;;;1999.90;999.90;;;5.90;99.90;;;;;;4961338;29;20211;-80
2021/03/17 01:46:17;;;;;;;1999.90;999.90;;;5.90;99.90;;;;;;4944837;29;20655;-81
2021/03/17 01:48:43;;;;;;;1999.90;999.90;;;5.80;99.90;;;;;;4943929;29;20168;-81
2021/03/17 01:51:09;;;;;;;1999.90;999.90;;;5.90;99.90;;;;;;4961309;29;20223;-80
2021/03/17 01:53:37;;;;;;;1999.90;999.90;;;5.90;99.90;;;;;;4961191;29;20184;-81
2021/03/17 01:56:04;;;;;;;1999.90;999.90;;;5.90;99.90;;;;;;4960790;29;20168;-81
2021/03/17 01:58:30;;;;;;;1999.90;999.90;;;5.90;99.90;;;;;;4960561;28;20271;-80
2021/03/17 02:00:57;;;;;;;1999.90;999.90;;;5.90;99.90;;;;;;4960333;29;20532;-81
2021/03/17 02:03:23;;;;;;;1999.90;999.90;;;5.80;99.90;;;;;;4961370;29;20191;-81
2021/03/17 02:05:50;;;;;;;1999.90;999.90;;;5.80;99.90;;;;;;4943625;29;20544;-81
2021/03/17 02:08:37;;;;;;;1999.90;999.90;;;5.80;99.90;;;;;;4960448;29;20493;-81
2021/03/17 02:11:04;;;;;;;1999.90;999.90;;;5.80;99.90;;;;;;4959911;29;20230;-80
2021/03/17 02:14:03;;;;;;;1999.90;999.90;;;5.80;99.90;;;;;;4960552;29;20188;-81
2021/03/17 02:16:38;;;;;;;1999.90;999.90;;;5.70;99.90;;;;;;4960729;29;20164;-80
2021/03/17 02:19:13;;;;;;;1999.90;999.90;;;5.80;99.90;;;;;;4960642;29;20164;-81
2021/03/17 02:22:21;;;;;;;1999.90;999.90;;;5.80;99.90;;;;;;4960121;29;20167;-81
2021/03/17 02:24:52;;;;;;;1999.90;999.90;;;5.80;99.90;;;;;;4959920;29;20195;-81
2021/03/17 02:28:08;;;;;;;1999.90;999.90;;;5.80;99.90;;;;;;4942746;29;20176;-81
2021/03/17 02:30:59;;;;;;;1999.90;999.90;;;5.80;99.90;;;;;;4960110;29;20565;-81
2021/03/17 02:33:46;;;;;;;1999.90;999.90;;;5.80;99.90;;;;;;4960621;29;20214;-81
2021/03/17 02:36:23;;;;;;;1999.90;999.90;;;5.80;99.90;;;;;;4960491;29;20164;-81
2021/03/17 02:39:01;;;;;;;1999.90;999.90;;;5.80;99.90;;;;;;4942779;29;20283;-81
2021/03/17 02:41:31;;;;;;;1999.90;999.90;;;5.80;99.90;;;;;;4960094;29;20212;-81
2021/03/17 02:44:00;;;;;;;1999.90;999.90;;;5.80;99.90;;;;;;4959886;29;20187;-80
2021/03/17 02:46:28;;;;;;;1999.90;999.90;;;5.80;99.90;;;;;;4959675;29;20171;-81
2021/03/17 02:49:04;;;;;;;1999.90;999.90;;;5.70;99.90;;;;;;4942564;29;20203;-81
2021/03/17 02:51:37;;;;;;;1999.90;999.90;;;5.70;99.90;;;;;;4960016;29;20162;-81
2021/03/17 02:54:05;;;;;;;1999.90;999.90;;;5.70;99.90;;;;;;4960219;29;20282;-81
2021/03/17 02:56:35;;;;;;;1999.90;999.90;;;5.70;99.90;;;;;;4960033;29;20160;-81
2021/03/17 02:59:03;;;;;;;1999.90;999.90;;;5.70;99.90;;;;;;4959187;29;20618;-81
2021/03/17 03:01:30;;;;;;;1999.90;999.90;;;5.70;99.90;;;;;;4959366;29;20161;-81
2021/03/17 03:03:57;;;;;;;1999.90;999.90;;;5.70;99.90;;;;;;4959137;29;20246;-81
2021/03/17 03:06:24;;;;;;;1999.90;999.90;;;5.70;99.90;;;;;;4959625;29;20571;-81
2021/03/17 03:08:50;;;;;;;1999.90;999.90;;;5.60;99.90;;;;;;4959496;29;20156;-81
2021/03/17 03:11:17;;;;;;;1999.90;999.90;;;5.60;99.90;;;;;;4958758;28;20643;-81
2021/03/17 03:13:43;;;;;;;1999.90;999.90;;;5.60;99.90;;;;;;4959976;29;20191;-81
2021/03/17 03:16:10;;;;;;;1999.90;999.90;;;5.60;99.90;;;;;;4959279;29;20165;-81
2021/03/17 03:18:37;;;;;;;1999.90;999.90;;;5.60;99.90;;;;;;4959905;29;20179;-81
2021/03/17 03:21:07;;;;;;;1999.90;999.90;;;5.60;99.90;;;;;;5035699;23;20590;-79
2021/03/17 03:23:34;;;;;;;1999.90;999.90;;;5.50;99.90;;;;;;4978539;28;20179;-80
2021/03/17 03:26:00;;;;;;;1999.90;999.90;;;5.60;99.90;;;;;;4978441;28;20678;-79
2021/03/17 03:28:26;;;;;;;1999.90;999.90;;;5.50;99.90;;;;;;4978577;28;20228;-80
2021/03/17 03:30:54;;;;;;;1999.90;999.90;;;5.40;99.90;;;;;;4978298;28;20701;-80
2021/03/17 03:33:21;;;;;;;1999.90;999.90;;;5.40;99.90;;;;;;4978498;28;20270;-79
2021/03/17 03:35:47;;;;;;;1999.90;999.90;;;5.30;99.90;;;;;;4978451;28;20187;-80
2021/03/17 03:38:18;;;;;;;1999.90;999.90;;;5.40;99.90;;;;;;4978652;28;20627;-80
2021/03/17 03:40:44;;;;;;;1999.90;999.90;;;5.40;99.90;;;;;;4961259;28;20183;-80
2021/03/17 03:43:10;;;;;;;1999.90;999.90;;;5.40;99.90;;;;;;4978377;28;20187;-80
2021/03/17 03:45:38;;;;;;;1999.90;999.90;;;5.30;99.90;;;;;;4960881;28;20520;-80
2021/03/17 03:48:04;;;;;;;1999.90;999.90;;;5.30;99.90;;;;;;4978030;28;20210;-80
2021/03/17 03:50:34;;;;;;;1999.90;999.90;;;5.30;99.90;;;;;;4978755;28;20233;-80
2021/03/17 03:53:29;;;;;;;1999.90;999.90;;;5.30;99.90;;;;;;4961442;28;20175;-80
2021/03/17 03:56:05;;;;;;;1999.90;999.90;;;5.30;99.90;;;;;;4977811;28;20180;-80
2021/03/17 03:58:39;;;;;;;1999.90;999.90;;;5.30;99.90;;;;;;4978799;28;20143;-80
2021/03/17 04:01:12;;;;;;;1999.90;999.90;;;5.30;99.90;;;;;;4978445;28;20154;-80
2021/03/17 04:03:44;;;;;;;1999.90;999.90;;;5.20;99.90;;;;;;4978285;28;20532;-80
2021/03/17 04:06:12;;;;;;;1999.90;999.90;;;5.20;99.90;;;;;;4978511;28;20186;-80
2021/03/17 04:08:47;;;;;;;1999.90;999.90;;;5.20;99.90;;;;;;4977703;28;20214;-80
2021/03/17 04:11:15;;;;;;;1999.90;999.90;;;5.30;99.90;;;;;;4960857;28;20542;-80
2021/03/17 04:13:42;;;;;;;1999.90;999.90;;;5.20;99.90;;;;;;4978235;28;20559;-80
2021/03/17 04:16:11;;;;;;;1999.90;999.90;;;5.20;99.90;;;;;;4960669;28;20713;-80
2021/03/17 04:18:42;;;;;;;1999.90;999.90;;;5.10;99.90;;;;;;4977906;28;20170;-80
2021/03/17 04:21:38;;;;;;;1999.90;999.90;;;5.10;99.90;;;;;;4977535;28;20210;-80
2021/03/17 04:24:05;;;;;;;1999.90;999.90;;;5.20;99.90;;;;;;4964925;28;20195;-80
2021/03/17 04:26:34;;;;;;;1999.90;999.90;;;5.20;99.90;;;;;;4982029;28;20230;-80
2021/03/17 04:29:01;;;;;;;1999.90;999.90;;;5.20;99.90;;;;;;4982153;28;20547;-81
2021/03/17 04:31:30;;;;;;;1999.90;999.90;;;5.20;99.90;;;;;;4981686;28;20233;-80
2021/03/17 04:33:56;;;;;;;1999.90;999.90;;;5.10;99.90;;;;;;4981609;28;20271;-80
2021/03/17 04:36:23;;;;;;;1999.90;999.90;;;5.10;99.90;;;;;;4981411;28;20639;-80
2021/03/17 04:38:49;;;;;;;1999.90;999.90;;;5.10;99.90;;;;;;4981750;28;20266;-80
2021/03/17 04:41:16;;;;;;;1999.90;999.90;;;5.10;99.90;;;;;;4981408;28;20163;-80
2021/03/17 04:43:43;;;;;;;1999.90;999.90;;;5.00;99.90;;;;;;4981315;28;20191;-81
2021/03/17 04:46:10;;;;;;;1999.90;999.90;;;5.00;99.90;;;;;;4964052;28;20167;-80
2021/03/17 04:48:40;;;;;;;1999.90;999.90;;;5.00;99.90;;;;;;4981668;28;20176;-80
2021/03/17 04:51:08;;;;;;;1999.90;999.90;;;5.00;99.90;;;;;;4981065;28;20181;-80
2021/03/17 04:53:34;;;;;;;1999.90;999.90;;;5.00;99.90;;;;;;4981548;28;20249;-80
2021/03/17 04:56:08;;;;;;;1999.90;999.90;;;5.00;99.90;;;;;;4964408;28;20195;-80
2021/03/17 04:58:37;;;;;;;1999.90;999.90;;;5.10;99.90;;;;;;4981318;28;20151;-80
2021/03/17 05:01:06;;;;;;;1999.90;999.90;;;5.10;99.90;;;;;;4981109;28;20183;-80
2021/03/17 05:03:32;;;;;;;1999.90;999.90;;;5.00;99.90;;;;;;4981367;28;20279;-80
2021/03/17 05:05:58;;;;;;;1999.90;999.90;;;5.00;99.90;;;;;;4964038;28;20182;-80
2021/03/17 05:08:26;;;;;;;1999.90;999.90;;;4.90;99.90;;;;;;4980846;28;20254;-80
2021/03/17 05:10:52;;;;;;;1999.90;999.90;;;5.00;99.90;;;;;;4981695;28;20700;-80
2021/03/17 05:13:19;;;;;;;1999.90;999.90;;;4.90;99.90;;;;;;4980944;28;20689;-80
2021/03/17 05:15:46;;;;;;;1999.90;999.90;;;5.00;99.90;;;;;;4981061;28;20187;-80
2021/03/17 05:18:16;;;;;;;1999.90;999.90;;;4.90;99.90;;;;;;4981642;28;20167;-80
2021/03/17 05:20:46;;;;;;;1999.90;999.90;;;4.90;99.90;;;;;;4980680;28;20183;-80
2021/03/17 05:23:13;;;;;;;1999.90;999.90;;;4.90;99.90;;;;;;4981623;28;20578;-80
2021/03/17 05:25:39;;;;;;;1999.90;999.90;;;4.90;99.90;;;;;;4963823;28;20186;-80
2021/03/17 05:28:05;;;;;;;1999.90;999.90;;;4.80;99.90;;;;;;4981081;28;20163;-80
2021/03/17 05:30:33;;;;;;;1999.90;999.90;;;4.80;99.90;;;;;;4980697;28;20238;-80
2021/03/17 05:33:01;;;;;;;1999.90;999.90;;;4.80;99.90;;;;;;4980570;28;20410;-80
2021/03/17 05:35:27;;;;;;;1999.90;999.90;;;4.90;99.90;;;;;;4979465;28;20183;-80
2021/03/17 05:37:53;;;;;;;1999.90;999.90;;;4.80;99.90;;;;;;4963707;28;20167;-80
2021/03/17 05:40:19;;;;;;;1999.90;999.90;;;4.80;99.90;;;;;;4963049;28;20194;-80
2021/03/17 05:42:45;;;;;;;1999.90;999.90;;;4.80;99.90;;;;;;4980633;28;20167;-80
2021/03/17 05:45:14;;;;;;;1999.90;999.90;;;4.80;99.90;;;;;;4980432;28;20454;-81
2021/03/17 05:47:44;;;;;;;1999.90;999.90;;;4.80;99.90;;;;;;4980481;28;20167;-81
2021/03/17 05:50:11;;;;;;;1999.90;999.90;;;4.80;99.90;;;;;;4980503;28;20155;-81
2021/03/17 05:52:39;;;;;;;1999.90;999.90;;;4.80;99.90;;;;;;4962749;28;20235;-81
2021/03/17 05:55:07;;;;;;;1999.90;999.90;;;4.80;99.90;;;;;;4980257;28;20191;-81
2021/03/17 05:57:34;;;;;;;1999.90;999.90;;;4.80;99.90;;;;;;4979808;28;20175;-81
2021/03/17 05:59:59;;;;;;;1999.90;999.90;;;4.80;99.90;;;;;;4963298;28;20171;-80
2021/03/17 06:02:25;;;;;;;1999.90;999.90;;;4.80;99.90;;;;;;4979707;28;20627;-80
2021/03/17 06:04:52;;;;;;;1999.90;999.90;;;4.80;99.90;;;;;;4980062;28;20187;-81
2021/03/17 06:07:27;;;;;;;1999.90;999.90;;;4.80;99.90;;;;;;4962654;28;20214;-81
2021/03/17 06:09:57;;;;;;;1999.90;999.90;;;4.80;99.90;;;;;;4980610;28;20156;-81
2021/03/17 06:12:24;;;;;;;1999.90;999.90;;;4.70;99.90;;;;;;4980323;28;20152;-80
2021/03/17 06:14:52;;;;;;;1999.90;999.90;;;4.70;99.90;;;;;;4980553;28;20281;-81
2021/03/17 06:17:22;;;;;;;1999.90;999.90;;;4.80;99.90;;;;;;4980123;28;20527;-80
2021/03/17 06:19:55;;;;;;;1999.90;999.90;;;4.80;99.90;;;;;;4980520;28;20147;-81
2021/03/17 06:22:21;;;;;;;1999.90;999.90;;;4.80;99.90;;;;;;4979724;28;20270;-81
2021/03/17 06:24:47;;;;;;;1999.90;999.90;;;4.80;99.90;;;;;;4979874;28;20532;-81
2021/03/17 06:27:14;;;;;;;1999.90;999.90;;;4.90;99.90;;;;;;4979930;28;20177;-81
2021/03/17 06:29:43;;;;;;;1999.90;999.90;;;4.90;99.90;;;;;;4979778;28;20174;-81
2021/03/17 06:32:10;;;;;;;1999.90;999.90;;;4.90;99.90;;;;;;4979641;28;20168;-80
2021/03/17 06:34:45;;;;;;;1999.90;999.90;;;4.90;99.90;;;;;;4961625;28;20191;-81
2021/03/17 06:37:11;;;;;;;1999.90;999.90;;;4.90;99.90;;;;;;4979683;28;20155;-80
2021/03/17 06:39:37;;;;;;;1999.90;999.90;;;4.90;99.90;;;;;;4979691;28;20191;-81
2021/03/17 06:42:02;;;;;;;1999.90;999.90;;;4.90;99.90;;;;;;4979518;28;20504;-80
2021/03/17 06:44:29;;;;;;;1999.90;999.90;;;5.00;99.90;;;;;;4979828;28;20191;-81
2021/03/17 06:47:21;;;;;;;1999.90;999.90;;;5.00;99.90;;;;;;4980093;28;20441;-80
2021/03/17 06:49:54;;;;;;;1999.90;999.90;;;5.00;99.90;;;;;;4979586;28;20171;-80
2021/03/17 06:52:27;;;;;;;1999.90;999.90;;;5.00;99.90;;;;;;4979737;28;20151;-81
2021/03/17 06:55:14;;;;;;;1999.90;999.90;;;5.00;99.90;;;;;;4978837;28;20206;-81
2021/03/17 06:57:57;;;;;;;1999.90;999.90;;;5.00;99.90;;;;;;5032349;23;20242;-80
2021/03/17 07:00:36;;;;;;;1999.90;999.90;;;5.00;99.90;;;;;;4979462;28;20218;-82
2021/03/17 07:03:15;;;;;;;1999.90;999.90;;;5.10;99.90;;;;;;4979838;28;20190;-83
2021/03/17 07:05:43;;;;;;;1999.90;999.90;;;5.20;99.90;;;;;;4961974;28;20579;-82
2021/03/17 07:08:14;;;;;;;1999.90;999.90;;;5.20;99.90;;;;;;4978198;28;20592;-81
2021/03/17 07:10:42;;;;;;;1999.90;999.90;;;5.30;99.90;;;;;;4979349;28;20168;-81
2021/03/17 07:13:10;;;;;;;1999.90;999.90;;;5.30;99.90;;;;;;4978752;28;20705;-81
2021/03/17 07:15:37;;;;;;;1999.90;999.90;;;5.30;99.90;;;;;;4978693;28;20368;-81
2021/03/17 07:18:17;;;;;;;1999.90;999.90;;;5.30;99.90;;;;;;4979013;28;20178;-81
2021/03/17 07:20:55;;;;;;;1999.90;999.90;;;5.40;99.90;;;;;;4961325;28;20515;-81
2021/03/17 07:23:29;;;;;;;1999.90;999.90;;;5.40;99.90;;;;;;4977856;28;20194;-81
2021/03/17 07:26:19;;;;;;;1999.90;999.90;;;5.30;99.90;;;;;;4978468;28;20166;-82
2021/03/17 07:28:51;;;;;;;1999.90;999.90;;;5.40;99.90;;;;;;4976990;28;20410;-82
2021/03/17 07:31:31;;;;;;;1999.90;999.90;;;5.40;99.90;;;;;;4978246;28;20603;-81
2021/03/17 07:34:13;;;;;;;1999.90;999.90;;;5.40;99.90;;;;;;4978292;28;20210;-82
2021/03/17 07:37:10;;;;;;;1999.90;999.90;;;5.40;99.90;;;;;;4978322;28;20246;-81
2021/03/17 07:39:38;;;;;;;1999.90;999.90;;;5.40;99.90;;;;;;4957937;28;20671;-81
2021/03/17 07:42:12;;;;;;;1999.90;999.90;;;5.40;99.90;;;;;;4960720;28;20167;-81
2021/03/17 07:44:41;;;;;;;1999.90;999.90;;;5.50;99.90;;;;;;4961281;28;20646;-81
2021/03/17 07:47:10;;;;;;;1999.90;999.90;;;5.50;99.90;;;;;;4977360;28;20183;-80
2021/03/17 07:49:38;;;;;;;1999.90;999.90;;;5.60;99.90;;;;;;4960357;28;20206;-81
2021/03/17 07:52:06;;;;;;;1999.90;999.90;;;5.60;99.90;;;;;;4960616;28;20206;-81
2021/03/17 07:54:37;;;;;;;1999.90;999.90;;;5.60;99.90;;;;;;4960482;28;20210;-81
2021/03/17 07:57:07;;;;;;;1999.90;999.90;;;5.60;99.90;;;;;;4959714;28;20186;-81
2021/03/17 07:59:36;;;;;;;1999.90;999.90;;;5.60;99.90;;;;;;4978208;28;20183;-81
2021/03/17 08:02:03;;;;;;;1999.90;999.90;;;5.60;99.90;;;;;;4978153;28;20163;-81
2021/03/17 08:04:33;;;;;;;1999.90;999.90;;;5.60;99.90;;;;;;4978602;28;20611;-81
2021/03/17 08:07:05;;;;;;;1999.90;999.90;;;5.60;99.90;;;;;;4979136;28;20155;-81
2021/03/17 08:09:33;;;;;;;1999.90;999.90;;;5.60;99.90;;;;;;4978242;28;20190;-81
2021/03/17 08:12:08;;;;;;;1999.90;999.90;;;5.50;99.90;;;;;;4978069;28;20166;-81
2021/03/17 08:14:38;;;;;;;1999.90;999.90;;;5.60;99.90;;;;;;4960701;28;20206;-81
2021/03/17 08:17:04;;;;;;;1999.90;999.90;;;5.50;99.90;;;;;;4961202;28;20309;-82
2021/03/17 08:19:30;;;;;;;1999.90;999.90;;;5.60;99.90;;;;;;4978145;28;20183;-81
2021/03/17 08:21:57;;;;;;;1999.90;999.90;;;5.60;99.90;;;;;;4978266;28;20168;-81
2021/03/17 08:24:35;;;;;;;1999.90;999.90;;;5.70;99.90;;;;;;4978324;28;20191;-81
2021/03/17 08:27:23;;;;;;;1999.90;999.90;;;5.70;99.90;;;;;;4979417;28;20159;-81
2021/03/17 08:29:52;;;;;;;1999.90;999.90;;;5.70;99.90;;;;;;4979573;28;20159;-81
2021/03/17 08:32:19;;;;;;;1999.90;999.90;;;5.70;99.90;;;;;;4978501;28;20167;-81
2021/03/17 08:34:56;;;;;;;1999.90;999.90;;;5.70;99.90;;;;;;4975609;28;20199;-80
2021/03/17 08:38:14;;;;;;;1999.90;999.90;;;5.80;99.90;;;;;;4958623;28;20170;-80
2021/03/17 08:40:39;;;;;;;1999.90;999.90;;;5.90;99.90;;;;;;4975987;28;20167;-81
2021/03/17 08:43:31;;;;;;;1999.90;999.90;;;6.00;99.90;;;;;;4975378;28;20245;-80
2021/03/17 08:46:07;;;;;;;1999.90;999.90;;;6.20;99.90;;;;;;4970859;28;20190;-80
2021/03/17 08:48:55;;;;;;;1999.90;999.90;;;6.30;99.90;;;;;;4976403;28;20181;-80
2021/03/17 08:51:49;;;;;;;1999.90;999.90;;;6.40;99.90;;;;;;4958855;28;20270;-81
2021/03/17 08:54:32;;;;;;;1999.90;999.90;;;6.50;99.90;;;;;;4958259;28;20199;-81
2021/03/17 08:56:59;;;;;;;1999.90;999.90;;;6.80;99.90;;;;;;4976422;28;20199;-81
2021/03/17 08:59:52;;;;;;;1999.90;999.90;;;6.80;99.90;;;;;;4977031;28;20274;-81
2021/03/17 09:02:29;;;;;;;1999.90;999.90;;;6.80;99.90;;;;;;4955427;28;20257;-80
2021/03/17 09:04:59;;;;;;;1999.90;999.90;;;6.80;99.90;;;;;;4958982;28;20202;-80
2021/03/17 09:07:30;;;;;;;1999.90;999.90;;;6.90;99.90;;;;;;4976270;28;20766;-80
2021/03/17 09:10:08;;;;;;;1999.90;999.90;;;6.90;99.90;;;;;;4979317;28;20156;-80
2021/03/17 09:12:34;;;;;;;1999.90;999.90;;;7.00;99.90;;;;;;4962295;28;20245;-80
2021/03/17 09:15:14;;;;;;;1999.90;999.90;;;7.00;99.90;;;;;;4979502;28;20635;-81
2021/03/17 09:17:56;;;;;;;1999.90;999.90;;;6.80;99.90;;;;;;4962342;28;20182;-80
2021/03/17 09:20:44;;;;;;;1999.90;999.90;;;6.80;99.90;;;;;;4962402;28;20166;-80
2021/03/17 09:23:19;;;;;;;1999.90;999.90;;;6.80;99.90;;;;;;4979735;28;20183;-80
2021/03/17 09:25:45;;;;;;;1999.90;999.90;;;6.80;99.90;;;;;;4979316;28;20266;-80
2021/03/17 09:28:31;;;;;;;1999.90;999.90;;;6.80;99.90;;;;;;4979430;28;20303;-80
2021/03/17 09:31:08;;;;;;;1999.90;999.90;;;6.70;99.90;;;;;;4979666;28;20171;-80
2021/03/17 09:33:44;;;;;;;1999.90;999.90;;;6.50;99.90;;;;;;4979190;28;20183;-80
2021/03/17 09:36:14;;;;;;;1999.90;999.90;;;6.40;99.90;;;;;;4979382;28;20694;-80
2021/03/17 09:38:53;;;;;;;1999.90;999.90;;;6.30;99.90;;;;;;4978788;28;20710;-79
2021/03/17 09:41:20;;;;;;;1999.90;999.90;;;6.40;99.90;;;;;;4978941;28;20144;-80
2021/03/17 09:43:48;;;;;;;1999.90;999.90;;;6.50;99.90;;;;;;4961091;28;20222;-80
2021/03/17 09:46:20;;;;;;;1999.90;999.90;;;6.50;99.90;;;;;;4978646;28;20183;-80
2021/03/17 09:48:47;;;;;;;1999.90;999.90;;;6.50;99.90;;;;;;4978326;28;20246;-80
2021/03/17 09:51:29;;;;;;;1999.90;999.90;;;6.50;99.90;;;;;;4978086;28;20179;-80
2021/03/17 09:53:57;;;;;;;1999.90;999.90;;;6.50;99.90;;;;;;4960885;28;20191;-81
2021/03/17 09:56:46;;;;;;;1999.90;999.90;;;6.30;99.90;;;;;;4961438;28;20195;-81
2021/03/17 09:59:44;;;;;;;1999.90;999.90;;;6.30;99.90;;;;;;4978754;28;20151;-80
2021/03/17 10:02:10;;;;;;;1999.90;999.90;;;6.30;99.90;;;;;;4960553;28;20238;-80
2021/03/17 10:04:43;;;;;;;1999.90;999.90;;;6.50;99.90;;;;;;4961609;28;20269;-80
2021/03/17 10:07:11;;;;;;;1999.90;999.90;;;6.70;99.90;;;;;;4979634;28;20394;-80
2021/03/17 10:09:37;;;;;;;1999.90;999.90;;;6.90;99.90;;;;;;4961291;28;20550;-79
2021/03/17 10:12:12;;;;;;;1999.90;999.90;;;7.20;99.90;;;;;;4961567;28;20198;-80
2021/03/17 10:14:43;;;;;;;1999.90;999.90;;;7.30;99.90;;;;;;4978944;28;20542;-80
2021/03/17 10:17:08;;;;;;;1999.90;999.90;;;7.40;99.90;;;;;;4978656;28;20151;-80
2021/03/17 10:19:36;;;;;;;1999.90;999.90;;;7.40;99.90;;;;;;4960533;28;20171;-79
2021/03/17 10:22:03;;;;;;;1999.90;999.90;;;7.30;99.90;;;;;;4978583;28;20450;-80
2021/03/17 10:24:37;;;;;;;1999.90;999.90;;;7.20;99.90;;;;;;4978425;28;20602;-80
2021/03/17 10:27:08;;;;;;;1999.90;999.90;;;7.00;99.90;;;;;;4960587;28;20206;-80
2021/03/17 10:29:34;;;;;;;1999.90;999.90;;;6.90;99.90;;;;;;4978342;28;20155;-80
2021/03/17 10:32:03;;;;;;;1999.90;999.90;;;7.00;99.90;;;;;;4977865;28;20167;-80
2021/03/17 10:34:29;;;;;;;1999.90;999.90;;;7.10;99.90;;;;;;4978127;28;20262;-81
2021/03/17 10:36:56;;;;;;;1999.90;999.90;;;7.20;99.90;;;;;;4961749;28;20635;-79
2021/03/17 10:39:30;;;;;;;1999.90;999.90;;;7.10;99.90;;;;;;4961305;28;20230;-80
2021/03/17 10:41:57;;;;;;;1999.90;999.90;;;7.20;99.90;;;;;;4978129;28;20661;-80
2021/03/17 10:44:25;;;;;;;1999.90;999.90;;;7.30;99.90;;;;;;4979019;28;20191;-80
2021/03/17 10:47:02;;;;;;;1999.90;999.90;;;7.30;99.90;;;;;;4960390;28;20234;-80
2021/03/17 10:49:29;;;;;;;1999.90;999.90;;;7.20;99.90;;;;;;4960864;28;20231;-80
2021/03/17 10:51:57;;;;;;;1999.90;999.90;;;7.20;99.90;;;;;;4978494;28;20209;-81
2021/03/17 10:54:45;;;;;;;1999.90;999.90;;;7.10;99.90;;;;;;4977823;28;20210;-81
2021/03/17 10:57:23;;;;;;;1999.90;999.90;;;7.10;99.90;;;;;;4960669;28;20721;-80
2021/03/17 10:59:49;;;;;;;1999.90;999.90;;;7.10;99.90;;;;;;4960534;28;20163;-80
2021/03/17 11:02:15;;;;;;;1999.90;999.90;;;7.00;99.90;;;;;;4977542;28;20202;-81
2021/03/17 11:05:10;;;;;;;1999.90;999.90;;;7.10;99.90;;;;;;4958655;28;20281;-79
2021/03/17 11:07:52;;;;;;;1999.90;999.90;;;7.20;99.90;;;;;;4958790;28;20198;-80
2021/03/17 11:10:29;;;;;;;1999.90;999.90;;;7.30;99.90;;;;;;4978102;28;20246;-80
2021/03/17 11:12:55;;;;;;;1999.90;999.90;;;7.10;99.90;;;;;;4959876;28;20175;-80
2021/03/17 11:15:30;;;;;;;1999.90;999.90;;;7.00;99.90;;;;;;4977189;28;20199;-80
2021/03/17 11:17:56;;;;;;;1999.90;999.90;;;6.80;99.90;;;;;;4959580;28;20155;-79
2021/03/17 11:20:23;;;;;;;1999.90;999.90;;;6.70;99.90;;;;;;4976612;28;20178;-80
2021/03/17 11:22:55;;;;;;;1999.90;999.90;;;6.70;99.90;;;;;;4976914;28;20519;-80
2021/03/17 11:25:27;;;;;;;1999.90;999.90;;;6.60;99.90;;;;;;4976555;28;20182;-80
2021/03/17 11:28:10;;;;;;;1999.90;999.90;;;6.50;99.90;;;;;;4976647;28;20266;-80
2021/03/17 11:30:58;;;;;;;1999.90;999.90;;;6.60;99.90;;;;;;4958952;28;20163;-80
2021/03/17 11:33:25;;;;;;;1999.90;999.90;;;6.40;99.90;;;;;;4957933;28;20273;-79
2021/03/17 11:35:56;;;;;;;1999.90;999.90;;;6.20;99.90;;;;;;4976138;28;20214;-79
2021/03/17 11:38:22;;;;;;;1999.90;999.90;;;6.20;99.90;;;;;;4976075;28;20231;-79
2021/03/17 11:40:54;;;;;;;1999.90;999.90;;;6.10;99.90;;;;;;4975759;28;20635;-80
2021/03/17 11:43:29;;;;;;;1999.90;999.90;;;6.10;99.90;;;;;;4958887;28;20674;-80
2021/03/17 11:45:57;;;;;;;1999.90;999.90;;;6.10;99.90;;;;;;4975448;28;20186;-80
2021/03/17 11:48:29;;;;;;;1999.90;999.90;;;6.20;99.90;;;;;;4975711;28;20171;-79
2021/03/17 11:51:13;;;;;;;1999.90;999.90;;;6.30;99.90;;;;;;4958631;28;20172;-79
2021/03/17 11:57:05;;;;;;;1999.90;999.90;;;6.70;99.90;;;;;;4971877;28;20186;-79
2021/03/17 11:59:34;;;;;;;1999.90;999.90;;;7.00;99.90;;;;;;4957994;28;20202;-80
2021/03/17 12:02:02;;;;;;;1999.90;999.90;;;7.20;99.90;;;;;;4975840;28;20174;-79
2021/03/17 12:04:52;;;;;;;1999.90;999.90;;;7.30;99.90;;;;;;4975931;28;20594;-79
2021/03/17 12:07:17;;;;;;;1999.90;999.90;;;7.20;99.90;;;;;;4975814;28;20155;-79
2021/03/17 12:10:51;;;;;;;1999.90;999.90;;;7.40;99.90;;;;;;4975712;28;20175;-79
2021/03/17 12:15:31;;;;;;;1999.90;999.90;;;7.80;99.90;;;;;;4957625;28;20214;-81
2021/03/17 12:18:03;;;;;;;1999.90;999.90;;;8.00;99.90;;;;;;4925806;29;20182;-81
2021/03/17 12:20:32;;;;;;;1999.90;999.90;;;8.00;99.90;;;;;;4941909;29;20211;-81
2021/03/17 12:23:07;;;;;;;1999.90;999.90;;;7.90;99.90;;;;;;4959039;28;20568;-79
2021/03/17 12:25:33;;;;;;;1999.90;999.90;;;7.90;99.90;;;;;;4941665;29;20255;-81
2021/03/17 12:27:59;;;;;;;1999.90;999.90;;;8.00;99.90;;;;;;4959992;29;20199;-81
2021/03/17 12:30:25;;;;;;;1999.90;999.90;;;8.30;99.90;;;;;;4959933;29;20416;-81
2021/03/17 12:32:53;;;;;;;1999.90;999.90;;;8.40;98.60;;;;;;4960229;28;20412;-81
2021/03/17 12:35:22;;;;;;;1999.90;999.90;;;8.60;99.90;;;;;;4959828;29;20655;-81